createdAt,value
2023-03-21T00:00:56.548Z,21.80
2023-03-21T00:03:25.454Z,18.80
2023-03-21T00:05:54.264Z,16.30
2023-03-21T00:08:24.954Z,18.30
2023-03-21T00:10:58.498Z,15.30
2023-03-21T00:13:32.602Z,17.00
2023-03-21T00:16:13.662Z,13.90
2023-03-21T00:18:52.637Z,15.90
2023-03-21T00:24:16.658Z,16.50
2023-03-21T00:26:45.270Z,16.10
2023-03-21T00:29:13.317Z,16.70
2023-03-21T00:31:41.369Z,18.50
2023-03-21T00:36:38.904Z,17.40
2023-03-21T00:39:08.803Z,16.40
2023-03-21T00:41:43.011Z,18.40
2023-03-21T00:44:16.091Z,15.60
2023-03-21T00:46:57.322Z,18.90
2023-03-21T00:49:34.174Z,16.70
2023-03-21T00:52:34.416Z,19.90
2023-03-21T00:54:55.566Z,21.20
2023-03-21T00:57:37.479Z,19.30
2023-03-21T01:00:10.793Z,18.90
2023-03-21T01:02:43.417Z,21.40
2023-03-21T01:05:12.070Z,23.90
2023-03-21T01:07:39.986Z,23.70
2023-03-21T01:10:08.572Z,19.30
2023-03-21T01:12:37.125Z,16.20
2023-03-21T01:15:05.670Z,17.10
2023-03-21T01:17:33.639Z,17.70
2023-03-21T01:20:01.610Z,17.60
2023-03-21T01:22:29.660Z,16.70
2023-03-21T01:25:08.795Z,20.10
2023-03-21T01:27:46.188Z,22.10
2023-03-21T01:30:21.562Z,20.70
2023-03-21T01:32:51.399Z,19.80
2023-03-21T01:35:19.719Z,17.00
2023-03-21T01:37:48.900Z,22.00
2023-03-21T01:40:20.046Z,17.50
2023-03-21T01:42:51.459Z,22.30
2023-03-21T01:45:59.289Z,20.00
2023-03-21T01:48:44.104Z,21.40
2023-03-21T01:51:13.562Z,19.90
2023-03-21T01:53:56.117Z,18.60
2023-03-21T01:56:32.132Z,18.80
2023-03-21T01:59:14.257Z,19.40
2023-03-21T02:02:07.435Z,18.60
2023-03-21T02:04:40.894Z,18.00
2023-03-21T02:07:28.915Z,15.60
2023-03-21T02:10:12.407Z,16.30
2023-03-21T02:12:43.008Z,17.10
2023-03-21T02:15:12.244Z,17.80
2023-03-21T02:18:06.590Z,19.60
2023-03-21T02:21:06.881Z,18.50
2023-03-21T02:24:20.675Z,17.60
2023-03-21T02:27:10.466Z,15.00
2023-03-21T02:30:00.235Z,18.90
2023-03-21T02:32:37.868Z,20.00
2023-03-21T02:35:19.901Z,18.50
2023-03-21T02:38:03.759Z,17.80
2023-03-21T02:40:45.790Z,21.20
2023-03-21T02:43:23.448Z,17.10
2023-03-21T02:46:00.568Z,17.60
2023-03-21T02:48:49.729Z,18.40
2023-03-21T02:51:23.052Z,20.20
2023-03-21T02:54:24.635Z,18.40
2023-03-21T02:56:49.246Z,18.20
2023-03-21T02:59:20.269Z,21.20
2023-03-21T03:01:52.425Z,17.20
2023-03-21T03:04:24.003Z,19.70
2023-03-21T03:06:58.130Z,23.70
2023-03-21T03:09:35.143Z,19.10
2023-03-21T03:12:16.802Z,18.00
2023-03-21T03:15:12.942Z,19.30
2023-03-21T03:18:14.154Z,18.30
2023-03-21T03:21:04.157Z,19.30
2023-03-21T03:24:03.508Z,16.80
2023-03-21T03:27:06.382Z,18.00
2023-03-21T03:29:39.246Z,19.50
2023-03-21T03:32:13.361Z,17.50
2023-03-21T03:34:49.822Z,20.00
2023-03-21T03:37:26.470Z,14.30
2023-03-21T03:40:08.429Z,17.00
2023-03-21T03:42:43.416Z,14.20
2023-03-21T03:45:24.679Z,15.80
2023-03-21T03:48:14.823Z,21.80
2023-03-21T03:51:29.438Z,14.40
2023-03-21T03:54:33.147Z,13.90
2023-03-21T03:57:04.528Z,19.50
2023-03-21T03:59:41.952Z,19.40
2023-03-21T04:02:33.058Z,17.70
2023-03-21T04:05:04.459Z,19.10
2023-03-21T04:07:32.568Z,16.10
2023-03-21T04:10:01.618Z,16.70
2023-03-21T04:12:29.679Z,17.40
2023-03-21T04:15:16.383Z,16.70
2023-03-21T04:17:48.757Z,14.60
2023-03-21T04:20:26.685Z,18.90
2023-03-21T04:23:03.059Z,15.80
2023-03-21T04:25:35.769Z,16.00
2023-03-21T04:28:05.934Z,15.10
2023-03-21T04:30:47.085Z,14.30
2023-03-21T04:33:25.964Z,19.50
2023-03-21T04:35:56.845Z,16.70
2023-03-21T04:38:30.846Z,15.90
2023-03-21T04:41:02.977Z,13.80
2023-03-21T04:43:32.217Z,13.30
2023-03-21T04:46:00.877Z,16.30
2023-03-21T04:48:29.297Z,15.50
2023-03-21T04:50:57.584Z,15.50
2023-03-21T04:53:25.799Z,22.80
2023-03-21T04:55:55.562Z,15.00
2023-03-21T04:58:24.295Z,15.60
2023-03-21T05:00:53.225Z,17.40
2023-03-21T05:03:22.136Z,14.10
2023-03-21T05:05:50.347Z,17.20
2023-03-21T05:08:19.880Z,18.40
2023-03-21T05:10:48.407Z,22.00
2023-03-21T05:13:17.638Z,19.00
2023-03-21T05:15:45.870Z,21.70
2023-03-21T05:18:14.201Z,21.60
2023-03-21T05:20:58.479Z,15.00
2023-03-21T05:23:31.762Z,16.90
2023-03-21T05:26:00.382Z,27.60
2023-03-21T05:28:40.099Z,16.30
2023-03-21T05:31:09.463Z,16.70
2023-03-21T05:33:37.878Z,20.50
2023-03-21T05:36:06.645Z,19.70
2023-03-21T05:38:35.076Z,18.80
2023-03-21T05:41:03.290Z,16.10
2023-03-21T05:43:32.513Z,17.40
2023-03-21T05:46:00.794Z,18.30
2023-03-21T05:48:29.995Z,19.40
2023-03-21T05:51:19.255Z,17.50
2023-03-21T05:53:48.712Z,21.80
2023-03-21T05:56:17.461Z,20.90
2023-03-21T05:58:50.241Z,21.90
2023-03-21T06:01:19.132Z,21.10
2023-03-21T06:03:52.604Z,18.20
2023-03-21T06:06:25.895Z,16.30
2023-03-21T06:09:00.620Z,13.90
2023-03-21T06:11:32.893Z,14.70
2023-03-21T06:14:30.616Z,20.50
2023-03-21T06:17:28.381Z,13.40
2023-03-21T06:20:07.120Z,18.40
2023-03-21T06:22:42.194Z,22.90
2023-03-21T06:25:10.663Z,20.50
2023-03-21T06:27:39.244Z,21.90
2023-03-21T06:30:09.067Z,24.90
2023-03-21T06:32:44.292Z,17.30
2023-03-21T06:35:15.426Z,22.40
2023-03-21T06:37:45.665Z,27.40
2023-03-21T06:40:15.029Z,24.70
2023-03-21T06:42:44.230Z,27.60
2023-03-21T06:45:12.993Z,27.20
2023-03-21T06:47:41.507Z,21.40
2023-03-21T06:50:15.548Z,27.40
2023-03-21T06:52:44.854Z,21.90
2023-03-21T06:55:13.724Z,20.80
2023-03-21T06:57:42.644Z,19.20
2023-03-21T07:00:11.929Z,18.50
2023-03-21T07:02:44.204Z,21.00
2023-03-21T07:05:18.088Z,21.70
2023-03-21T07:07:47.070Z,17.30
2023-03-21T07:10:16.155Z,31.40
2023-03-21T07:12:48.493Z,20.30
2023-03-21T07:15:26.336Z,24.30
2023-03-21T07:17:54.802Z,16.90
2023-03-21T07:20:23.635Z,28.70
2023-03-21T07:22:51.964Z,41.70
2023-03-21T07:25:20.373Z,34.50
2023-03-21T07:27:49.650Z,39.60
2023-03-21T07:30:19.310Z,34.60
2023-03-21T07:32:47.946Z,27.80
2023-03-21T07:35:18.406Z,38.80
2023-03-21T07:37:46.835Z,30.10
2023-03-21T07:40:18.342Z,27.90
2023-03-21T07:42:50.309Z,30.90
2023-03-21T07:45:29.342Z,23.50
2023-03-21T07:47:57.656Z,26.20
2023-03-21T07:50:25.969Z,20.20
2023-03-21T07:52:54.722Z,25.00
2023-03-21T07:55:23.300Z,22.60
2023-03-21T07:57:52.148Z,20.80
2023-03-21T08:00:23.337Z,15.60
2023-03-21T08:02:58.916Z,29.20
2023-03-21T08:05:38.525Z,22.40
2023-03-21T08:08:08.676Z,20.70
2023-03-21T08:10:37.694Z,19.50
2023-03-21T08:13:06.169Z,20.40
2023-03-21T08:15:34.632Z,16.80
2023-03-21T08:18:02.759Z,18.20
2023-03-21T08:20:31.393Z,17.90
2023-03-21T08:22:59.634Z,25.80
2023-03-21T08:25:28.260Z,32.00
2023-03-21T08:27:57.091Z,22.30
2023-03-21T08:30:28.346Z,38.70
2023-03-21T08:33:00.842Z,19.40
2023-03-21T08:35:31.719Z,29.30
2023-03-21T08:38:03.704Z,63.60
2023-03-21T08:40:32.027Z,26.10
2023-03-21T08:43:00.683Z,22.00
2023-03-21T08:45:29.875Z,25.40
2023-03-21T08:47:59.021Z,21.20
2023-03-21T08:50:29.778Z,35.00
2023-03-21T08:52:58.200Z,20.00
2023-03-21T08:55:26.400Z,18.00
2023-03-21T08:57:54.668Z,17.80
2023-03-21T09:00:23.338Z,20.70
2023-03-21T09:02:52.581Z,16.40
2023-03-21T09:05:23.079Z,16.10
2023-03-21T09:07:53.182Z,17.10
2023-03-21T09:10:23.441Z,20.80
2023-03-21T09:12:53.975Z,21.40
2023-03-21T09:15:25.893Z,29.30
2023-03-21T09:17:57.217Z,19.80
2023-03-21T09:20:31.473Z,16.50
2023-03-21T09:23:01.885Z,21.10
2023-03-21T09:25:31.723Z,21.90
2023-03-21T09:28:01.215Z,18.60
2023-03-21T09:30:30.261Z,17.00
2023-03-21T09:33:03.975Z,28.10
2023-03-21T09:35:32.974Z,22.20
2023-03-21T09:38:01.601Z,26.10
2023-03-21T09:41:17.555Z,28.40
2023-03-21T09:44:08.436Z,20.50
2023-03-21T09:46:58.577Z,20.70
2023-03-21T09:49:40.996Z,22.20
2023-03-21T09:52:24.634Z,26.00
2023-03-21T09:54:54.035Z,29.00
2023-03-21T09:57:34.100Z,25.00
2023-03-21T10:00:16.128Z,20.40
2023-03-21T10:02:51.045Z,24.50
2023-03-21T10:05:28.591Z,19.00
2023-03-21T10:08:19.762Z,25.20
2023-03-21T10:10:59.041Z,21.10
2023-03-21T10:13:32.480Z,23.00
2023-03-21T10:16:14.395Z,24.00
2023-03-21T10:18:44.498Z,18.90
2023-03-21T10:21:51.384Z,18.30
2023-03-21T10:24:16.527Z,19.60
2023-03-21T10:26:46.724Z,20.30
2023-03-21T10:29:17.344Z,24.10
2023-03-21T10:31:47.699Z,19.40
2023-03-21T10:34:18.225Z,23.00
2023-03-21T10:36:47.136Z,23.70
2023-03-21T10:39:35.853Z,21.20
2023-03-21T10:42:04.283Z,21.20
2023-03-21T10:44:36.204Z,26.10
2023-03-21T10:47:10.165Z,27.10
2023-03-21T10:50:06.491Z,22.10
2023-03-21T10:52:29.045Z,16.30
2023-03-21T10:55:18.890Z,22.70
2023-03-21T10:57:47.775Z,21.80
2023-03-21T11:00:26.065Z,24.00
2023-03-21T11:02:55.164Z,27.90
2023-03-21T11:05:35.340Z,18.00
2023-03-21T11:08:14.161Z,22.80
2023-03-21T11:10:54.591Z,23.30
2023-03-21T11:13:34.697Z,21.30
2023-03-21T11:16:23.396Z,21.10
2023-03-21T11:18:56.866Z,19.60
2023-03-21T11:21:29.757Z,18.30
2023-03-21T11:23:58.320Z,26.60
2023-03-21T11:26:36.880Z,18.20
2023-03-21T11:29:27.277Z,20.30
2023-03-21T11:32:01.189Z,19.60
2023-03-21T11:35:05.062Z,22.10
2023-03-21T11:37:39.385Z,31.60
2023-03-21T11:40:31.061Z,23.50
2023-03-21T11:43:23.371Z,20.90
2023-03-21T11:46:14.588Z,26.70
2023-03-21T11:48:45.523Z,25.60
2023-03-21T11:51:41.091Z,28.50
2023-03-21T11:54:25.395Z,30.90
2023-03-21T11:56:59.789Z,20.30
2023-03-21T11:59:34.356Z,19.10
2023-03-21T12:05:00.514Z,15.50
2023-03-21T12:07:58.707Z,18.60
2023-03-21T12:10:45.628Z,17.30
2023-03-21T12:13:35.575Z,23.40
2023-03-21T12:16:24.852Z,19.70
2023-03-21T12:19:21.291Z,20.10
2023-03-21T12:22:01.989Z,20.90
2023-03-21T12:24:38.755Z,15.00
2023-03-21T12:27:19.537Z,17.50
2023-03-21T12:30:33.461Z,18.00
2023-03-21T12:33:09.260Z,21.50
2023-03-21T12:36:26.557Z,18.30
2023-03-21T12:39:15.583Z,12.70
2023-03-21T12:42:05.955Z,46.70
2023-03-21T12:44:39.343Z,14.90
2023-03-21T12:47:13.639Z,18.60
2023-03-21T12:49:49.996Z,17.00
2023-03-21T12:52:32.827Z,10.10
2023-03-21T12:55:08.294Z,9.90
2023-03-21T12:57:57.460Z,13.20
2023-03-21T13:00:38.562Z,10.20
2023-03-21T13:03:33.532Z,12.30
2023-03-21T13:06:11.369Z,10.60
2023-03-21T13:08:53.318Z,11.50
2023-03-21T13:11:25.346Z,10.00
2023-03-21T13:14:18.108Z,6.70
2023-03-21T13:16:56.084Z,4.50
2023-03-21T13:19:55.502Z,5.40
2023-03-21T13:22:31.926Z,7.90
2023-03-21T13:25:07.854Z,8.90
2023-03-21T13:27:40.164Z,7.00
2023-03-21T13:30:20.722Z,6.30
2023-03-21T13:32:52.176Z,11.00
2023-03-21T13:35:21.150Z,7.50
2023-03-21T13:37:57.738Z,7.50
2023-03-21T13:40:38.292Z,5.50
2023-03-21T13:43:44.926Z,7.20
2023-03-21T13:46:52.236Z,6.00
2023-03-21T13:49:36.818Z,6.40
2023-03-21T13:52:12.219Z,6.00
2023-03-21T13:54:53.610Z,7.40
2023-03-21T13:57:46.829Z,5.70
2023-03-21T14:00:28.097Z,7.20
2023-03-21T14:03:19.674Z,9.80
2023-03-21T14:05:52.146Z,12.80
2023-03-21T14:08:27.932Z,8.50
2023-03-21T14:11:09.416Z,9.80
2023-03-21T14:13:50.879Z,7.70
2023-03-21T14:16:22.591Z,9.70
2023-03-21T14:19:01.945Z,9.20
2023-03-21T14:21:33.476Z,7.80
2023-03-21T14:24:07.714Z,11.20
2023-03-21T14:26:44.763Z,10.10
2023-03-21T14:29:34.929Z,7.10
2023-03-21T14:32:05.956Z,6.80
2023-03-21T14:34:37.373Z,6.30
2023-03-21T14:37:08.314Z,6.80
2023-03-21T14:39:36.723Z,8.80
2023-03-21T14:42:15.112Z,9.50
2023-03-21T14:44:56.782Z,13.20
2023-03-21T14:47:28.247Z,8.80
2023-03-21T14:49:58.552Z,8.50
2023-03-21T14:52:32.395Z,6.20
2023-03-21T14:55:06.097Z,6.00
2023-03-21T14:57:34.515Z,6.00
2023-03-21T15:00:13.677Z,8.00
2023-03-21T15:02:46.143Z,6.50
2023-03-21T15:05:22.667Z,7.00
2023-03-21T15:08:01.166Z,6.50
2023-03-21T15:10:32.110Z,7.20
2023-03-21T15:13:12.425Z,6.60
2023-03-21T15:15:41.999Z,6.50
2023-03-21T15:18:19.156Z,6.40
2023-03-21T15:20:50.540Z,12.60
2023-03-21T15:23:31.431Z,6.80
2023-03-21T15:26:12.948Z,6.70
2023-03-21T15:28:41.856Z,6.10
2023-03-21T15:31:17.712Z,6.50
2023-03-21T15:33:51.035Z,11.30
2023-03-21T15:36:28.051Z,10.10
2023-03-21T15:38:56.634Z,9.30
2023-03-21T15:41:29.323Z,12.00
2023-03-21T15:44:00.798Z,12.50
2023-03-21T15:46:44.561Z,15.30
2023-03-21T15:49:13.164Z,11.10
2023-03-21T15:52:02.972Z,10.50
2023-03-21T15:54:42.700Z,7.30
2023-03-21T15:57:25.424Z,11.00
2023-03-21T16:00:21.294Z,8.80
2023-03-21T16:02:57.578Z,9.50
2023-03-21T16:05:32.193Z,12.30
2023-03-21T16:08:09.498Z,9.80
2023-03-21T16:10:38.736Z,11.30
2023-03-21T16:13:07.438Z,11.20
2023-03-21T16:15:35.654Z,10.00
2023-03-21T16:18:08.469Z,9.70
2023-03-21T16:20:45.219Z,9.20
2023-03-21T16:23:15.872Z,9.00
2023-03-21T16:25:44.715Z,9.20
2023-03-21T16:28:16.702Z,12.70
2023-03-21T16:30:45.388Z,10.80
2023-03-21T16:33:15.286Z,13.00
2023-03-21T16:35:43.656Z,9.80
2023-03-21T16:38:13.291Z,9.50
2023-03-21T16:40:43.680Z,10.30
2023-03-21T16:43:12.773Z,15.80
2023-03-21T16:45:41.301Z,10.50
2023-03-21T16:48:16.554Z,8.90
2023-03-21T16:53:17.257Z,10.40
2023-03-21T16:55:46.139Z,11.20
2023-03-21T16:58:16.785Z,11.90
2023-03-21T17:00:44.866Z,13.30
2023-03-21T17:03:18.246Z,17.00
2023-03-21T17:05:46.768Z,18.20
2023-03-21T17:08:18.982Z,13.80
2023-03-21T17:10:47.816Z,12.80
2023-03-21T17:13:16.205Z,12.50
2023-03-21T17:15:44.261Z,14.80
2023-03-21T17:18:12.492Z,17.60
2023-03-21T17:20:41.975Z,15.00
2023-03-21T17:23:11.122Z,20.70
2023-03-21T17:25:39.438Z,16.10
2023-03-21T17:28:07.734Z,16.60
2023-03-21T17:30:40.308Z,16.80
2023-03-21T17:33:09.054Z,21.40
2023-03-21T17:35:37.785Z,17.10
2023-03-21T17:38:11.370Z,22.40
2023-03-21T17:40:40.038Z,17.70
2023-03-21T17:43:19.487Z,23.10
2023-03-21T17:45:47.806Z,15.80
2023-03-21T17:48:16.378Z,13.30
2023-03-21T17:50:44.840Z,14.80
2023-03-21T17:53:15.075Z,14.50
2023-03-21T17:55:43.612Z,16.60
2023-03-21T17:58:13.129Z,38.30
2023-03-21T18:00:41.713Z,23.30
2023-03-21T18:03:09.801Z,22.50
2023-03-21T18:05:38.216Z,36.30
2023-03-21T18:08:11.189Z,29.30
2023-03-21T18:10:41.668Z,27.10
2023-03-21T18:13:10.972Z,32.20
2023-03-21T18:15:44.891Z,34.50
2023-03-21T18:18:14.889Z,32.10
2023-03-21T18:20:54.025Z,28.80
2023-03-21T18:23:23.343Z,32.90
2023-03-21T18:25:53.042Z,44.40
2023-03-21T18:28:22.329Z,34.00
2023-03-21T18:31:08.206Z,37.40
2023-03-21T18:33:40.452Z,38.60
2023-03-21T18:36:10.265Z,41.30
2023-03-21T18:38:39.112Z,34.00
2023-03-21T18:41:10.724Z,32.10
2023-03-21T18:44:01.310Z,41.20
2023-03-21T18:46:27.474Z,41.20
2023-03-21T18:48:57.242Z,43.20
2023-03-21T18:51:25.766Z,39.50
2023-03-21T18:53:54.746Z,39.20
2023-03-21T18:57:13.135Z,45.00
2023-03-21T18:59:11.966Z,50.70
2023-03-21T19:01:40.157Z,33.80
2023-03-21T19:04:21.374Z,29.60
2023-03-21T19:06:53.205Z,24.20
2023-03-21T19:09:29.130Z,42.40
2023-03-21T19:12:01.515Z,32.20
2023-03-21T19:14:30.738Z,29.30
2023-03-21T19:17:55.872Z,37.70
2023-03-21T19:19:48.060Z,24.20
2023-03-21T19:22:16.389Z,19.40
2023-03-21T19:24:44.913Z,22.00
2023-03-21T19:27:13.455Z,26.00
2023-03-21T19:29:42.051Z,21.40
2023-03-21T19:32:10.312Z,40.90
2023-03-21T19:34:38.658Z,33.00
2023-03-21T19:37:07.325Z,37.30
2023-03-21T19:39:35.562Z,34.30
2023-03-21T19:42:15.953Z,52.50
2023-03-21T19:44:45.740Z,29.20
2023-03-21T19:47:13.898Z,33.20
2023-03-21T19:50:30.680Z,38.40
2023-03-21T19:52:32.073Z,42.70
2023-03-21T19:55:00.151Z,32.50
2023-03-21T19:57:28.105Z,30.90
2023-03-21T19:59:56.456Z,32.00
2023-03-21T20:06:09.556Z,42.90
2023-03-21T20:09:05.445Z,36.70
2023-03-21T20:11:26.297Z,45.00
2023-03-21T20:13:54.271Z,45.80
2023-03-21T20:16:22.366Z,48.50
2023-03-21T20:18:52.558Z,60.10
2023-03-21T20:21:25.417Z,57.50
2023-03-21T20:23:53.941Z,64.30
2023-03-21T20:26:21.875Z,60.70
2023-03-21T20:29:27.962Z,67.70
2023-03-21T20:31:44.846Z,54.70
2023-03-21T20:34:13.340Z,62.60
2023-03-21T20:36:43.511Z,58.70
2023-03-21T20:39:11.866Z,54.80
2023-03-21T20:41:39.977Z,54.10
2023-03-21T20:46:56.855Z,54.50
2023-03-21T20:49:26.146Z,53.80
2023-03-21T20:54:44.412Z,49.30
2023-03-21T20:57:12.674Z,49.60
2023-03-21T20:59:46.798Z,36.80
2023-03-21T21:02:15.272Z,41.20
2023-03-21T21:04:59.978Z,36.50
2023-03-21T21:07:31.162Z,56.40
2023-03-21T21:09:59.166Z,39.90
2023-03-21T21:12:28.696Z,36.90
2023-03-21T21:14:56.906Z,40.40
2023-03-21T21:18:01.584Z,39.50
2023-03-21T21:20:17.004Z,52.10
2023-03-21T21:22:58.655Z,40.50
2023-03-21T21:25:31.972Z,40.00
2023-03-21T21:28:02.029Z,57.90
2023-03-21T21:30:32.748Z,43.90
2023-03-21T21:33:01.104Z,42.60
2023-03-21T21:35:29.432Z,46.30
2023-03-21T21:37:57.383Z,46.10
2023-03-21T21:40:25.688Z,42.40
2023-03-21T21:42:53.862Z,46.70
2023-03-21T21:45:21.960Z,55.30
2023-03-21T21:47:50.248Z,47.20
2023-03-21T21:50:19.322Z,47.20
2023-03-21T21:52:54.417Z,50.30
2023-03-21T21:55:22.966Z,41.90
2023-03-21T21:57:51.036Z,40.30
2023-03-21T22:00:20.234Z,34.80
2023-03-21T22:02:48.314Z,35.30
2023-03-21T22:05:16.581Z,33.80
2023-03-21T22:07:45.999Z,39.10
2023-03-21T22:10:15.027Z,37.70
2023-03-21T22:12:43.233Z,42.40
2023-03-21T22:15:12.179Z,41.00
2023-03-21T22:17:41.176Z,39.30
2023-03-21T22:20:12.136Z,46.00
2023-03-21T22:22:40.851Z,43.70
2023-03-21T22:25:11.784Z,38.20
2023-03-21T22:27:40.937Z,51.90
2023-03-21T22:30:14.045Z,39.30
2023-03-21T22:32:42.336Z,44.10
2023-03-21T22:35:11.032Z,42.20
2023-03-21T22:37:41.514Z,46.20
2023-03-21T22:40:13.198Z,42.20
2023-03-21T22:42:42.551Z,38.60
2023-03-21T22:45:16.223Z,36.60
2023-03-21T22:47:44.311Z,34.70
2023-03-21T22:50:12.475Z,29.50
2023-03-21T22:52:40.547Z,33.10
2023-03-21T22:55:10.202Z,34.50
2023-03-21T22:57:38.284Z,34.70
2023-03-21T23:00:13.801Z,35.50
2023-03-21T23:02:42.583Z,34.40
2023-03-21T23:05:11.691Z,40.90
2023-03-21T23:07:39.783Z,38.00
2023-03-21T23:10:08.987Z,39.50
2023-03-21T23:12:37.662Z,42.80
2023-03-21T23:15:07.932Z,42.40
2023-03-21T23:17:36.122Z,42.60
2023-03-21T23:20:11.414Z,40.50
2023-03-21T23:25:07.957Z,40.50
2023-03-21T23:27:36.255Z,33.80
2023-03-21T23:30:06.815Z,43.50
2023-03-21T23:32:34.777Z,43.30
2023-03-21T23:35:02.812Z,34.10
2023-03-21T23:37:30.741Z,30.00
2023-03-21T23:39:58.724Z,43.60
2023-03-21T23:42:29.334Z,41.00
2023-03-21T23:44:57.307Z,40.60
2023-03-21T23:47:25.374Z,36.90
2023-03-21T23:49:53.384Z,47.00
2023-03-21T23:52:22.070Z,41.70
2023-03-21T23:54:50.160Z,40.40
2023-03-21T23:57:18.763Z,46.40
2023-03-21T23:59:49.709Z,39.70
